CheckWX is a tool to help pilots better visualize weather data.  It is not intended as a substitute for an official pre-flight weather briefing.

02:18:46 UTC

KMBL METAR
Manistee Co-Blacker Airport
Manistee, Michigan, USA
Current

23 mins ago

KMBL 180156Z AUTO 04011G18KT 9SM -SN FEW021 BKN036 OVC046 M05/M09 A2998 RMK AO2 SNB26 SLP173 P0000 T10501089 FZRANO
Observed
Feb-18 @ 01:56 UTC
Wind
  • 040° at 11 KTS
  • Gusting to 18 KTS
Visibility
9 SM
Flight Rules
VFR
Conditions
Light Snow
Cloud Levels
  • Few at 2,100' AGL
  • Broken at 3,600' AGL
  • Overcast at 4,600' AGL
Temperature
-5°C / 23°F
Dewpoint
-9°C / 16°F
Humidity
74%
Altimeter
29.98" Hg
Pressure
1017.3 hPa
Current Rain
0.01"
Previous

1 hour ago

KMBL 180056Z AUTO 04011KT 10SM BKN032 BKN060 OVC070 M04/M08 A2996 RMK AO2 SLP165 T10391083 FZRANO
Observed
Feb-18 @ 00:56 UTC
Wind
  • 040° at 11 KTS
Visibility
10 SM
Flight Rules
VFR
Cloud Levels
  • Broken at 3,200' AGL
  • Broken at 6,000' AGL
  • Overcast at 7,000' AGL
Temperature
-4°C / 25°F
Dewpoint
-8°C / 18°F
Humidity
74%
Altimeter
29.96" Hg
Pressure
1016.5 hPa
Previous

2 hours ago

KMBL 172356Z AUTO 05008KT 10SM FEW034 OVC085 M03/M08 A2993 RMK AO2 SLP156 T10331083 11011 21039 53005 FZRANO
Observed
Feb-17 @ 23:56 UTC
Wind
  • 050° at 8 KTS
Visibility
10 SM
Flight Rules
VFR
Cloud Levels
  • Few at 3,400' AGL
  • Overcast at 8,500' AGL
Temperature
-3°C / 27°F
Dewpoint
-8°C / 18°F
Humidity
69%
Altimeter
29.93" Hg
Pressure
1015.6 hPa